createdAt,value
2018-01-15T00:01:02.276Z,29.17
2018-01-15T00:03:29.701Z,27.30
2018-01-15T00:05:57.147Z,29.87
2018-01-15T00:08:24.576Z,27.13
2018-01-15T00:10:52.001Z,25.55
2018-01-15T00:13:19.421Z,28.85
2018-01-15T00:15:46.848Z,29.75
2018-01-15T00:18:14.325Z,29.50
2018-01-15T00:20:41.712Z,24.67
2018-01-15T00:23:09.128Z,26.17
2018-01-15T00:25:36.576Z,30.55
2018-01-15T00:28:04.013Z,27.80
2018-01-15T00:30:31.437Z,26.33
2018-01-15T00:32:59.322Z,27.10
2018-01-15T00:35:26.742Z,25.58
2018-01-15T00:37:54.156Z,28.38
2018-01-15T00:40:21.594Z,27.45
2018-01-15T00:42:49.012Z,27.92
2018-01-15T00:45:16.429Z,28.80
2018-01-15T00:47:43.889Z,27.50
2018-01-15T00:50:11.311Z,28.33
2018-01-15T00:52:38.730Z,28.75
2018-01-15T00:55:06.310Z,27.83
2018-01-15T00:57:33.687Z,34.42
2018-01-15T01:00:01.104Z,33.85
2018-01-15T01:02:28.536Z,31.35
2018-01-15T01:04:55.949Z,29.75
2018-01-15T01:07:23.364Z,28.87
2018-01-15T01:09:50.794Z,30.90
2018-01-15T01:12:18.221Z,34.72
2018-01-15T01:14:45.986Z,27.10
2018-01-15T01:17:13.413Z,30.58
2018-01-15T01:19:40.834Z,30.17
2018-01-15T01:22:08.256Z,31.75
2018-01-15T01:24:35.684Z,31.83
2018-01-15T01:27:03.100Z,26.75
2018-01-15T01:29:30.524Z,30.02
2018-01-15T01:31:58.562Z,28.98
2018-01-15T01:34:26.632Z,30.35
2018-01-15T01:36:54.074Z,28.85
2018-01-15T01:39:21.491Z,28.27
2018-01-15T01:41:48.913Z,27.83
2018-01-15T01:44:16.337Z,26.10
2018-01-15T01:46:43.752Z,27.50
2018-01-15T01:49:11.178Z,27.40
2018-01-15T01:51:38.612Z,32.50
2018-01-15T01:54:06.033Z,26.83
2018-01-15T01:56:33.467Z,30.73
2018-01-15T01:59:01.357Z,27.77
2018-01-15T02:01:28.776Z,29.58
2018-01-15T02:03:56.193Z,30.23
2018-01-15T02:06:23.620Z,27.15
2018-01-15T02:08:51.036Z,28.55
2018-01-15T02:11:18.461Z,29.65
2018-01-15T02:13:46.293Z,29.20
2018-01-15T02:16:13.713Z,26.60
2018-01-15T02:18:41.137Z,27.65
2018-01-15T02:21:08.569Z,31.25
2018-01-15T02:23:35.989Z,28.33
2018-01-15T02:26:03.433Z,29.92
2018-01-15T02:28:30.857Z,26.77
2018-01-15T02:30:58.302Z,25.20
2018-01-15T02:33:25.708Z,33.38
2018-01-15T02:35:53.168Z,29.33
2018-01-15T02:38:20.581Z,30.52
2018-01-15T02:40:48.004Z,29.52
2018-01-15T02:43:15.448Z,27.33
2018-01-15T02:45:42.883Z,28.12
2018-01-15T02:48:10.297Z,27.17
2018-01-15T02:50:37.733Z,29.42
2018-01-15T02:53:05.157Z,29.87
2018-01-15T02:55:32.830Z,30.50
2018-01-15T02:58:00.266Z,27.48
2018-01-15T03:00:27.720Z,29.33
2018-01-15T03:02:55.146Z,31.52
2018-01-15T03:05:22.576Z,29.90
2018-01-15T03:07:50.000Z,28.50
2018-01-15T03:10:17.422Z,27.15
2018-01-15T03:12:44.848Z,28.63
2018-01-15T03:15:12.280Z,28.75
2018-01-15T03:17:39.710Z,31.50
2018-01-15T03:20:07.445Z,29.30
2018-01-15T03:22:34.885Z,31.33
2018-01-15T03:25:02.312Z,29.93
2018-01-15T03:27:29.740Z,27.23
2018-01-15T03:29:57.153Z,26.80
2018-01-15T03:32:24.596Z,26.25
2018-01-15T03:34:52.014Z,30.00
2018-01-15T03:37:19.421Z,24.53
2018-01-15T03:39:46.841Z,27.25
2018-01-15T03:42:14.264Z,27.50
2018-01-15T03:44:41.685Z,25.60
2018-01-15T03:47:09.082Z,29.07
2018-01-15T03:49:36.510Z,30.57
2018-01-15T03:52:03.928Z,28.47
2018-01-15T03:54:31.345Z,29.50
2018-01-15T03:56:59.076Z,30.58
2018-01-15T03:59:26.497Z,32.53
2018-01-15T04:01:53.926Z,31.75
2018-01-15T04:04:21.350Z,26.63
2018-01-15T04:06:48.761Z,26.00
2018-01-15T04:09:16.178Z,30.83
2018-01-15T04:11:43.609Z,25.03
2018-01-15T04:14:11.029Z,27.80
2018-01-15T04:16:38.449Z,31.33
2018-01-15T04:19:05.892Z,27.70
2018-01-15T04:21:33.313Z,28.97
2018-01-15T04:24:00.728Z,27.27
2018-01-15T04:26:28.161Z,34.83
2018-01-15T04:28:55.572Z,25.60
2018-01-15T04:31:22.988Z,33.80
2018-01-15T04:33:50.436Z,28.17
2018-01-15T04:36:17.840Z,29.50
2018-01-15T04:38:45.264Z,27.00
2018-01-15T04:41:13.058Z,30.47
2018-01-15T04:43:40.478Z,35.22
2018-01-15T04:46:07.892Z,31.03
2018-01-15T04:48:35.608Z,31.03
2018-01-15T04:51:03.020Z,31.23
2018-01-15T04:53:30.464Z,32.00
2018-01-15T04:55:57.874Z,33.40
2018-01-15T04:58:25.290Z,35.77
2018-01-15T05:00:52.696Z,30.80
2018-01-15T05:03:20.137Z,33.90
2018-01-15T05:05:47.541Z,32.77
2018-01-15T05:08:14.957Z,35.27
2018-01-15T05:10:42.376Z,32.47
2018-01-15T05:13:09.785Z,35.27
2018-01-15T05:15:37.208Z,29.98
2018-01-15T05:18:04.636Z,29.65
2018-01-15T05:20:32.052Z,31.10
2018-01-15T05:22:59.517Z,27.37
2018-01-15T05:25:26.951Z,34.17
2018-01-15T05:27:54.392Z,33.20
2018-01-15T05:30:21.827Z,30.42
2018-01-15T05:32:49.301Z,28.27
2018-01-15T05:35:16.741Z,31.08
2018-01-15T05:37:44.161Z,30.62
2018-01-15T05:40:11.662Z,36.88
2018-01-15T05:42:39.065Z,32.15
2018-01-15T05:45:06.485Z,36.15
2018-01-15T05:47:33.917Z,33.15
2018-01-15T05:50:01.342Z,31.80
2018-01-15T05:52:28.783Z,37.08
2018-01-15T05:54:56.513Z,33.97
2018-01-15T05:57:23.927Z,31.17
2018-01-15T05:59:51.361Z,37.05
2018-01-15T06:02:18.784Z,34.08
2018-01-15T06:04:46.204Z,36.13
2018-01-15T06:07:13.646Z,32.92
2018-01-15T06:09:41.048Z,36.45
2018-01-15T06:12:08.468Z,38.30
2018-01-15T06:14:35.884Z,33.50
2018-01-15T06:17:07.081Z,37.08
2018-01-15T06:19:34.493Z,35.15
2018-01-15T06:22:01.914Z,35.67
2018-01-15T06:24:29.342Z,31.83
2018-01-15T06:26:56.761Z,39.67
2018-01-15T06:29:24.180Z,37.47
2018-01-15T06:31:51.608Z,37.50
2018-01-15T06:34:19.024Z,33.60
2018-01-15T06:36:46.450Z,37.30
2018-01-15T06:39:13.872Z,33.15
2018-01-15T06:41:41.323Z,29.42
2018-01-15T06:44:08.780Z,29.92
2018-01-15T06:46:36.477Z,30.15
2018-01-15T06:49:03.910Z,30.60
2018-01-15T06:51:31.334Z,31.58
2018-01-15T06:53:58.854Z,32.67
2018-01-15T06:56:26.225Z,32.72
2018-01-15T06:58:53.646Z,33.75
2018-01-15T07:01:21.081Z,31.00
2018-01-15T07:03:48.496Z,29.30
2018-01-15T07:06:15.913Z,28.70
2018-01-15T07:08:43.381Z,28.75
2018-01-15T07:11:10.809Z,29.23
2018-01-15T07:13:38.234Z,28.83
2018-01-15T07:16:05.953Z,34.15
2018-01-15T07:18:33.364Z,32.47
2018-01-15T07:21:00.774Z,32.40
2018-01-15T07:23:28.205Z,31.25
2018-01-15T07:25:55.625Z,33.85
2018-01-15T07:28:23.045Z,33.67
2018-01-15T07:30:50.469Z,34.28
2018-01-15T07:33:17.889Z,35.15
2018-01-15T07:35:45.305Z,33.38
2018-01-15T07:38:12.741Z,36.63
2018-01-15T07:40:40.159Z,31.08
2018-01-15T07:43:07.573Z,31.30
2018-01-15T07:45:35.004Z,33.35
2018-01-15T07:48:02.425Z,30.58
2018-01-15T07:50:29.840Z,32.78
2018-01-15T07:52:57.270Z,35.55
2018-01-15T07:55:24.688Z,36.90
2018-01-15T07:57:52.161Z,37.33
2018-01-15T08:00:19.581Z,34.97
2018-01-15T08:02:46.997Z,34.85
2018-01-15T08:05:14.415Z,33.00
2018-01-15T08:07:41.845Z,36.13
2018-01-15T08:10:09.260Z,38.42
2018-01-15T08:12:36.668Z,32.10
2018-01-15T08:15:04.897Z,29.53
2018-01-15T08:17:32.301Z,35.90
2018-01-15T08:19:59.708Z,29.97
2018-01-15T08:22:27.844Z,31.30
2018-01-15T08:24:55.252Z,32.67
2018-01-15T08:27:22.665Z,31.40
2018-01-15T08:29:50.112Z,32.47
2018-01-15T08:32:17.526Z,30.10
2018-01-15T08:34:44.944Z,32.92
2018-01-15T08:37:12.372Z,29.67
2018-01-15T08:39:39.793Z,24.90
2018-01-15T08:42:07.188Z,28.73
2018-01-15T08:44:34.605Z,33.27
2018-01-15T08:47:02.021Z,27.10
2018-01-15T08:49:29.441Z,30.03
2018-01-15T08:51:56.849Z,28.43
2018-01-15T08:54:24.252Z,25.80
2018-01-15T08:56:51.661Z,28.57
2018-01-15T08:59:19.088Z,27.42
2018-01-15T09:01:46.488Z,29.33
2018-01-15T09:04:13.916Z,28.40
2018-01-15T09:06:41.321Z,25.65
2018-01-15T09:09:08.728Z,29.07
2018-01-15T09:11:36.133Z,29.03
2018-01-15T09:14:03.565Z,28.52
2018-01-15T09:16:30.970Z,27.40
2018-01-15T09:18:58.373Z,35.93
2018-01-15T09:21:25.797Z,27.03
2018-01-15T09:23:53.196Z,24.73
2018-01-15T09:26:20.608Z,26.83
2018-01-15T09:28:48.029Z,27.53
2018-01-15T09:31:15.437Z,24.30
2018-01-15T09:33:42.861Z,25.77
2018-01-15T09:36:10.278Z,26.20
2018-01-15T09:38:37.681Z,27.57
2018-01-15T09:41:05.134Z,30.23
2018-01-15T09:43:32.597Z,30.03
2018-01-15T09:45:59.992Z,34.60
2018-01-15T09:48:27.396Z,26.67
2018-01-15T09:50:55.133Z,29.43
2018-01-15T09:53:22.540Z,28.27
2018-01-15T09:55:49.944Z,23.50
2018-01-15T09:58:17.369Z,29.37
2018-01-15T10:00:44.768Z,27.60
2018-01-15T10:03:12.172Z,27.83
2018-01-15T10:05:39.875Z,25.03
2018-01-15T10:08:07.281Z,24.00
2018-01-15T10:10:34.685Z,27.10
2018-01-15T10:13:02.109Z,27.27
2018-01-15T10:15:29.516Z,21.97
2018-01-15T10:17:56.924Z,30.27
2018-01-15T10:20:24.340Z,24.70
2018-01-15T10:22:51.745Z,23.63
2018-01-15T10:25:19.151Z,27.00
2018-01-15T10:27:46.563Z,24.77
2018-01-15T10:30:13.972Z,29.17
2018-01-15T10:32:41.425Z,27.00
2018-01-15T10:35:08.800Z,23.70
2018-01-15T10:37:36.213Z,30.40
2018-01-15T10:40:03.623Z,26.07
2018-01-15T10:42:31.522Z,26.67
2018-01-15T10:44:58.917Z,29.83
2018-01-15T10:47:26.336Z,23.17
2018-01-15T10:49:53.756Z,26.73
2018-01-15T10:52:21.169Z,25.80
2018-01-15T10:54:48.572Z,22.93
2018-01-15T10:57:15.992Z,26.87
2018-01-15T10:59:43.584Z,26.50
2018-01-15T11:02:11.025Z,22.90
2018-01-15T11:04:38.426Z,25.93
2018-01-15T11:07:05.834Z,32.20
2018-01-15T11:09:33.247Z,23.83
2018-01-15T11:12:01.025Z,25.97
2018-01-15T11:14:28.448Z,27.23
2018-01-15T11:16:55.852Z,24.73
2018-01-15T11:19:23.273Z,23.93
2018-01-15T11:21:50.683Z,23.07
2018-01-15T11:24:18.089Z,23.60
2018-01-15T11:26:45.505Z,23.73
2018-01-15T11:29:13.752Z,27.47
2018-01-15T11:31:41.164Z,24.43
2018-01-15T11:34:08.576Z,24.57
2018-01-15T11:36:35.989Z,23.77
2018-01-15T11:39:03.408Z,25.30
2018-01-15T11:41:31.105Z,26.83
2018-01-15T11:43:58.514Z,27.30
2018-01-15T11:46:25.916Z,27.00
2018-01-15T11:48:53.332Z,25.00
2018-01-15T11:51:20.737Z,25.50
2018-01-15T11:53:48.140Z,23.93
2018-01-15T11:56:15.555Z,29.30
2018-01-15T11:58:42.957Z,23.70
2018-01-15T12:01:10.368Z,25.80
2018-01-15T12:03:37.781Z,25.53
2018-01-15T12:06:05.190Z,27.40
2018-01-15T12:08:32.589Z,25.33
2018-01-15T12:11:00.292Z,27.53
2018-01-15T12:13:27.703Z,23.27
2018-01-15T12:15:55.124Z,27.43
2018-01-15T12:18:22.521Z,29.30
2018-01-15T12:20:49.933Z,25.83
2018-01-15T12:23:17.338Z,24.13
2018-01-15T12:25:45.134Z,23.27
2018-01-15T12:28:12.545Z,25.60
2018-01-15T12:30:39.949Z,26.30
2018-01-15T12:33:07.364Z,26.63
2018-01-15T12:35:34.774Z,23.70
2018-01-15T12:38:02.182Z,22.87
2018-01-15T12:40:29.597Z,27.83
2018-01-15T12:42:57.001Z,22.90
2018-01-15T12:45:24.396Z,21.87
2018-01-15T12:47:51.822Z,22.60
2018-01-15T12:50:19.224Z,22.40
2018-01-15T12:52:46.961Z,23.60
2018-01-15T12:55:14.365Z,22.00
2018-01-15T12:57:41.785Z,21.00
2018-01-15T13:00:09.538Z,21.80
2018-01-15T13:02:36.941Z,21.07
2018-01-15T13:05:04.367Z,21.00
2018-01-15T13:07:43.466Z,20.57
2018-01-15T13:10:10.869Z,19.97
2018-01-15T13:12:38.283Z,23.70
2018-01-15T13:15:05.714Z,20.43
2018-01-15T13:17:33.116Z,21.60
2018-01-15T13:20:00.522Z,23.33
2018-01-15T13:22:27.945Z,21.33
2018-01-15T13:24:56.146Z,23.67
2018-01-15T13:27:23.553Z,18.63
2018-01-15T13:29:51.301Z,19.40
2018-01-15T13:32:18.709Z,18.50
2018-01-15T13:34:46.114Z,19.00
2018-01-15T13:37:13.538Z,18.47
2018-01-15T13:39:40.953Z,18.43
2018-01-15T13:42:08.378Z,17.00
2018-01-15T13:44:35.793Z,18.70
2018-01-15T13:47:03.193Z,18.37
2018-01-15T13:49:30.610Z,17.87
2018-01-15T13:51:58.026Z,17.00
2018-01-15T13:54:25.441Z,17.17
2018-01-15T13:56:52.845Z,15.50
2018-01-15T13:59:20.273Z,17.70
2018-01-15T14:01:47.684Z,16.40
2018-01-15T14:04:15.086Z,17.47
2018-01-15T14:06:42.514Z,17.10
2018-01-15T14:09:09.914Z,17.47
2018-01-15T14:11:37.322Z,17.93
2018-01-15T14:14:04.737Z,18.53
2018-01-15T14:16:32.137Z,18.80
2018-01-15T14:18:59.541Z,18.30
2018-01-15T14:21:26.962Z,17.97
2018-01-15T14:23:54.369Z,17.30
2018-01-15T14:26:21.770Z,17.33
2018-01-15T14:28:49.185Z,18.77
2018-01-15T14:31:16.588Z,17.33
2018-01-15T14:33:43.993Z,17.13
2018-01-15T14:36:11.822Z,16.57
2018-01-15T14:38:39.225Z,16.90
2018-01-15T14:41:06.633Z,16.60
2018-01-15T14:43:34.045Z,16.10
2018-01-15T14:46:01.449Z,15.67
2018-01-15T14:48:28.865Z,17.07
2018-01-15T14:50:56.589Z,17.47
2018-01-15T14:53:23.984Z,18.00
2018-01-15T14:55:51.398Z,16.83
2018-01-15T14:58:18.888Z,16.00
2018-01-15T15:00:46.304Z,15.60
2018-01-15T15:03:13.706Z,17.07
2018-01-15T15:05:41.241Z,16.87
2018-01-15T15:08:08.642Z,16.63
2018-01-15T15:10:36.049Z,17.17
2018-01-15T15:13:03.889Z,17.40
2018-01-15T15:15:31.285Z,17.00
2018-01-15T15:17:58.689Z,16.67
2018-01-15T15:20:26.105Z,16.63
2018-01-15T15:22:53.520Z,16.90
2018-01-15T15:25:20.924Z,17.87
2018-01-15T15:27:48.382Z,17.33
2018-01-15T15:30:15.829Z,17.50
2018-01-15T15:32:43.232Z,18.20
2018-01-15T15:35:10.993Z,18.13
2018-01-15T15:37:38.397Z,17.97
2018-01-15T15:40:05.809Z,18.00
2018-01-15T15:42:33.224Z,19.17
2018-01-15T15:45:00.638Z,17.50
2018-01-15T15:47:28.042Z,17.10
2018-01-15T15:49:55.736Z,17.03
2018-01-15T15:52:23.140Z,17.27
2018-01-15T15:54:50.545Z,16.60
2018-01-15T15:57:17.961Z,16.93
2018-01-15T15:59:45.367Z,16.80
2018-01-15T16:02:12.768Z,16.00
2018-01-15T16:04:40.189Z,17.60
2018-01-15T16:07:07.605Z,17.67
2018-01-15T16:09:35.010Z,15.97
2018-01-15T16:12:02.848Z,15.60
2018-01-15T16:14:30.263Z,17.30
2018-01-15T16:16:57.664Z,15.97
2018-01-15T16:19:25.540Z,16.83
2018-01-15T16:22:04.720Z,16.07
2018-01-15T16:24:32.136Z,17.90
2018-01-15T16:26:59.545Z,17.43
2018-01-15T16:29:26.962Z,18.30
2018-01-15T16:31:54.793Z,15.43
2018-01-15T16:34:22.205Z,16.87
2018-01-15T16:36:49.628Z,14.70
2018-01-15T16:39:17.041Z,13.93
2018-01-15T16:41:44.440Z,15.73
2018-01-15T16:44:11.845Z,15.40
2018-01-15T16:46:39.271Z,15.27
2018-01-15T16:49:06.681Z,13.50
2018-01-15T16:51:34.085Z,14.17
2018-01-15T16:54:01.511Z,14.17
2018-01-15T16:56:28.912Z,14.00
2018-01-15T16:58:56.317Z,12.20
2018-01-15T17:01:24.572Z,14.47
2018-01-15T17:03:51.948Z,13.37
2018-01-15T17:06:19.352Z,14.50
2018-01-15T17:08:46.768Z,14.27
2018-01-15T17:11:14.184Z,13.90
2018-01-15T17:13:41.581Z,14.30
2018-01-15T17:16:09.393Z,13.50
2018-01-15T17:18:36.792Z,14.50
2018-01-15T17:21:04.192Z,12.67
2018-01-15T17:23:32.008Z,13.30
2018-01-15T17:25:59.426Z,13.80
2018-01-15T17:28:26.830Z,14.63
2018-01-15T17:30:54.309Z,13.37
2018-01-15T17:33:21.709Z,12.00
2018-01-15T17:35:49.113Z,13.00
2018-01-15T17:38:16.537Z,12.87
2018-01-15T17:40:43.941Z,12.70
2018-01-15T17:43:11.368Z,13.10
2018-01-15T17:45:38.789Z,13.00
2018-01-15T17:48:06.206Z,11.57
2018-01-15T17:50:33.617Z,13.60
2018-01-15T17:53:01.029Z,12.80
2018-01-15T17:55:28.432Z,12.97
2018-01-15T17:57:55.842Z,13.00
2018-01-15T18:00:23.257Z,13.23
2018-01-15T18:02:50.660Z,12.97
2018-01-15T18:05:18.063Z,13.43
2018-01-15T18:07:45.929Z,13.20
2018-01-15T18:10:13.333Z,13.33
2018-01-15T18:12:41.231Z,13.17
2018-01-15T18:15:08.677Z,12.73
2018-01-15T18:17:36.080Z,13.10
2018-01-15T18:20:03.488Z,12.27
2018-01-15T18:22:30.916Z,12.77
2018-01-15T18:24:58.324Z,12.80
2018-01-15T18:27:25.768Z,11.40
2018-01-15T18:29:53.189Z,11.97
2018-01-15T18:32:20.628Z,11.10
2018-01-15T18:34:48.037Z,12.13
2018-01-15T18:37:15.726Z,11.80
2018-01-15T18:39:43.145Z,11.70
2018-01-15T18:42:10.554Z,11.13
2018-01-15T18:44:38.006Z,10.90
2018-01-15T18:47:05.424Z,11.47
2018-01-15T18:49:32.833Z,11.00
2018-01-15T18:52:00.552Z,11.70
2018-01-15T18:54:28.857Z,10.93
2018-01-15T18:56:56.937Z,11.00
2018-01-15T18:59:25.660Z,11.20
2018-01-15T19:01:53.067Z,10.53
2018-01-15T19:04:20.569Z,10.60
2018-01-15T19:06:48.760Z,10.10
2018-01-15T19:09:16.753Z,10.90
2018-01-15T19:11:44.157Z,10.50
2018-01-15T19:14:11.572Z,10.50
2018-01-15T19:16:39.027Z,10.53
2018-01-15T19:19:06.513Z,10.70
2018-01-15T19:21:39.445Z,9.47
2018-01-15T19:24:06.891Z,10.10
2018-01-15T19:26:34.765Z,9.70
2018-01-15T19:29:02.561Z,10.07
2018-01-15T19:31:30.289Z,9.67
2018-01-15T19:33:58.206Z,9.10
2018-01-15T19:36:27.577Z,10.00
2018-01-15T19:38:56.787Z,8.80
2018-01-15T19:41:41.033Z,9.50
2018-01-15T19:44:26.977Z,9.37
2018-01-15T19:46:59.889Z,10.17
2018-01-15T19:49:32.801Z,9.53
2018-01-15T19:52:05.718Z,9.50
2018-01-15T19:54:38.749Z,10.20
2018-01-15T19:57:11.702Z,9.00
2018-01-15T19:59:45.534Z,9.67
2018-01-15T20:05:24.360Z,8.53
2018-01-15T20:07:57.340Z,9.50
2018-01-15T20:10:38.201Z,9.03
2018-01-15T20:13:05.617Z,8.77
2018-01-15T20:15:33.024Z,8.90
2018-01-15T20:18:00.430Z,8.70
2018-01-15T20:20:27.829Z,9.00
2018-01-15T20:22:55.226Z,8.37
2018-01-15T20:25:22.617Z,8.93
2018-01-15T20:27:50.268Z,9.47
2018-01-15T20:30:17.669Z,9.40
2018-01-15T20:32:45.068Z,10.03
2018-01-15T20:35:12.484Z,9.77
2018-01-15T20:37:39.885Z,10.40
2018-01-15T20:40:07.284Z,10.93
2018-01-15T20:42:34.701Z,11.10
2018-01-15T20:45:02.109Z,10.30
2018-01-15T20:47:29.512Z,10.27
2018-01-15T20:49:56.934Z,10.63
2018-01-15T20:52:24.333Z,11.23
2018-01-15T20:54:51.744Z,10.40
2018-01-15T20:57:19.184Z,10.73
2018-01-15T20:59:46.593Z,10.33
2018-01-15T21:02:14.101Z,10.40
2018-01-15T21:04:41.468Z,10.27
2018-01-15T21:07:08.869Z,10.10
2018-01-15T21:09:37.045Z,10.30
2018-01-15T21:12:04.465Z,11.00
2018-01-15T21:14:31.868Z,10.60
2018-01-15T21:16:59.280Z,10.87
2018-01-15T21:19:27.075Z,11.03
2018-01-15T21:21:54.477Z,11.17
2018-01-15T21:24:21.878Z,10.50
2018-01-15T21:26:49.327Z,11.07
2018-01-15T21:29:16.704Z,11.10
2018-01-15T21:31:44.116Z,11.10
2018-01-15T21:34:11.533Z,10.60
2018-01-15T21:36:38.942Z,10.50
2018-01-15T21:39:06.355Z,10.70
2018-01-15T21:41:34.765Z,11.23
2018-01-15T21:44:02.190Z,11.50
2018-01-15T21:46:30.207Z,10.80
2018-01-15T21:48:57.997Z,11.37
2018-01-15T21:51:25.397Z,11.23
2018-01-15T21:53:52.800Z,11.70
2018-01-15T21:56:20.225Z,12.40
2018-01-15T21:58:47.634Z,12.07
2018-01-15T22:01:15.038Z,11.00
2018-01-15T22:03:42.452Z,10.40
2018-01-15T22:06:09.860Z,10.77
2018-01-15T22:08:38.058Z,10.77
2018-01-15T22:11:05.482Z,11.03
2018-01-15T22:13:32.888Z,11.20
2018-01-15T22:16:00.294Z,11.07
2018-01-15T22:18:27.705Z,10.50
2018-01-15T22:20:55.108Z,10.70
2018-01-15T22:23:22.513Z,11.00
2018-01-15T22:25:49.925Z,11.10
2018-01-15T22:28:17.328Z,11.50
2018-01-15T22:30:44.757Z,11.60
2018-01-15T22:33:12.165Z,12.27
2018-01-15T22:35:39.560Z,12.10
2018-01-15T22:38:06.976Z,12.13
2018-01-15T22:40:34.385Z,12.30
2018-01-15T22:43:01.805Z,13.50
2018-01-15T22:45:29.205Z,12.60
2018-01-15T22:47:57.377Z,12.03
2018-01-15T22:50:24.790Z,12.10
2018-01-15T22:52:52.193Z,11.83
2018-01-15T22:55:19.864Z,12.40
2018-01-15T22:57:47.290Z,13.07
2018-01-15T23:00:14.693Z,13.47
2018-01-15T23:02:42.114Z,17.10
2018-01-15T23:05:09.522Z,13.13
2018-01-15T23:07:36.924Z,12.67
2018-01-15T23:10:04.641Z,12.83
2018-01-15T23:12:32.049Z,12.90
2018-01-15T23:14:59.452Z,13.07
2018-01-15T23:17:26.873Z,13.93
2018-01-15T23:19:54.280Z,13.80
2018-01-15T23:22:21.680Z,14.00
2018-01-15T23:24:49.093Z,13.67
2018-01-15T23:27:16.509Z,13.60
2018-01-15T23:29:43.912Z,13.40
2018-01-15T23:32:11.641Z,13.77
2018-01-15T23:34:39.045Z,13.47
2018-01-15T23:37:06.453Z,13.70
2018-01-15T23:39:34.273Z,14.33
2018-01-15T23:42:01.677Z,14.33
2018-01-15T23:44:29.081Z,13.90
2018-01-15T23:46:56.508Z,15.07
2018-01-15T23:49:23.930Z,16.17
2018-01-15T23:51:51.332Z,15.73
2018-01-15T23:54:30.418Z,15.30
2018-01-15T23:56:57.825Z,15.10
2018-01-15T23:59:25.240Z,14.00
